sensor_id;sensor_type;location;lat;lon;timestamp;P1;durP1;ratioP1;P2;durP2;ratioP2
19193;SDS011;9729;52.296;13.260;2023-11-22T00:02:16;18.53;;;11.70;;
19193;SDS011;9729;52.296;13.260;2023-11-22T00:04:43;20.53;;;11.03;;
19193;SDS011;9729;52.296;13.260;2023-11-22T00:07:09;23.50;;;13.83;;
19193;SDS011;9729;52.296;13.260;2023-11-22T00:09:36;26.33;;;12.90;;
19193;SDS011;9729;52.296;13.260;2023-11-22T00:12:02;22.50;;;11.97;;
19193;SDS011;9729;52.296;13.260;2023-11-22T00:14:30;21.17;;;11.93;;
19193;SDS011;9729;52.296;13.260;2023-11-22T00:16:56;25.27;;;14.37;;
19193;SDS011;9729;52.296;13.260;2023-11-22T00:19:23;29.50;;;14.73;;
19193;SDS011;9729;52.296;13.260;2023-11-22T00:21:50;26.03;;;13.47;;
19193;SDS011;9729;52.296;13.260;2023-11-22T00:24:16;32.73;;;15.13;;
19193;SDS011;9729;52.296;13.260;2023-11-22T00:26:43;25.37;;;13.47;;
19193;SDS011;9729;52.296;13.260;2023-11-22T00:29:09;28.93;;;13.57;;
19193;SDS011;9729;52.296;13.260;2023-11-22T00:31:38;30.20;;;14.03;;
19193;SDS011;9729;52.296;13.260;2023-11-22T00:34:05;28.57;;;13.60;;
19193;SDS011;9729;52.296;13.260;2023-11-22T00:36:31;25.17;;;14.27;;
19193;SDS011;9729;52.296;13.260;2023-11-22T00:38:59;30.77;;;14.33;;
19193;SDS011;9729;52.296;13.260;2023-11-22T00:41:29;27.13;;;15.23;;
19193;SDS011;9729;52.296;13.260;2023-11-22T00:43:56;29.03;;;14.17;;
19193;SDS011;9729;52.296;13.260;2023-11-22T00:46:22;26.23;;;14.17;;
19193;SDS011;9729;52.296;13.260;2023-11-22T00:48:50;26.50;;;14.27;;
19193;SDS011;9729;52.296;13.260;2023-11-22T00:51:16;28.23;;;14.50;;
19193;SDS011;9729;52.296;13.260;2023-11-22T00:53:44;28.47;;;14.73;;
19193;SDS011;9729;52.296;13.260;2023-11-22T00:56:10;27.07;;;14.90;;
19193;SDS011;9729;52.296;13.260;2023-11-22T00:58:37;29.87;;;13.43;;
19193;SDS011;9729;52.296;13.260;2023-11-22T01:01:03;23.93;;;12.83;;
19193;SDS011;9729;52.296;13.260;2023-11-22T01:03:30;23.60;;;13.77;;
19193;SDS011;9729;52.296;13.260;2023-11-22T01:05:57;27.83;;;12.63;;
19193;SDS011;9729;52.296;13.260;2023-11-22T01:08:24;26.60;;;12.50;;
19193;SDS011;9729;52.296;13.260;2023-11-22T01:10:50;21.27;;;11.83;;
19193;SDS011;9729;52.296;13.260;2023-11-22T01:13:16;18.37;;;10.67;;
19193;SDS011;9729;52.296;13.260;2023-11-22T01:15:43;16.27;;;10.10;;
19193;SDS011;9729;52.296;13.260;2023-11-22T01:18:09;16.40;;;10.37;;
19193;SDS011;9729;52.296;13.260;2023-11-22T01:20:36;15.27;;;9.30;;
19193;SDS011;9729;52.296;13.260;2023-11-22T01:23:03;14.47;;;9.77;;
19193;SDS011;9729;52.296;13.260;2023-11-22T01:25:30;14.47;;;10.10;;
19193;SDS011;9729;52.296;13.260;2023-11-22T01:27:56;15.40;;;10.23;;
19193;SDS011;9729;52.296;13.260;2023-11-22T01:30:23;14.57;;;9.03;;
19193;SDS011;9729;52.296;13.260;2023-11-22T01:32:49;15.33;;;9.30;;
19193;SDS011;9729;52.296;13.260;2023-11-22T01:35:15;13.03;;;9.37;;
19193;SDS011;9729;52.296;13.260;2023-11-22T01:37:42;12.37;;;8.53;;
19193;SDS011;9729;52.296;13.260;2023-11-22T01:40:10;15.07;;;9.30;;
19193;SDS011;9729;52.296;13.260;2023-11-22T01:42:37;13.00;;;9.20;;
19193;SDS011;9729;52.296;13.260;2023-11-22T01:45:05;12.37;;;8.80;;
19193;SDS011;9729;52.296;13.260;2023-11-22T01:47:32;11.93;;;8.57;;
19193;SDS011;9729;52.296;13.260;2023-11-22T01:49:58;11.73;;;8.87;;
19193;SDS011;9729;52.296;13.260;2023-11-22T01:52:25;15.07;;;10.40;;
19193;SDS011;9729;52.296;13.260;2023-11-22T01:54:51;11.63;;;9.27;;
19193;SDS011;9729;52.296;13.260;2023-11-22T01:57:19;14.33;;;9.43;;
19193;SDS011;9729;52.296;13.260;2023-11-22T01:59:46;14.53;;;9.67;;
19193;SDS011;9729;52.296;13.260;2023-11-22T02:02:13;12.43;;;9.03;;
19193;SDS011;9729;52.296;13.260;2023-11-22T02:04:39;16.27;;;10.23;;
19193;SDS011;9729;52.296;13.260;2023-11-22T02:07:06;17.77;;;9.83;;
19193;SDS011;9729;52.296;13.260;2023-11-22T02:09:32;14.50;;;9.43;;
19193;SDS011;9729;52.296;13.260;2023-11-22T02:11:58;14.87;;;9.37;;
19193;SDS011;9729;52.296;13.260;2023-11-22T02:14:26;13.37;;;10.10;;
19193;SDS011;9729;52.296;13.260;2023-11-22T02:16:52;12.30;;;9.17;;
19193;SDS011;9729;52.296;13.260;2023-11-22T02:19:19;12.13;;;8.93;;
19193;SDS011;9729;52.296;13.260;2023-11-22T02:21:45;13.50;;;9.93;;
19193;SDS011;9729;52.296;13.260;2023-11-22T02:24:13;12.97;;;9.70;;
19193;SDS011;9729;52.296;13.260;2023-11-22T02:26:43;14.20;;;9.43;;
19193;SDS011;9729;52.296;13.260;2023-11-22T02:29:10;13.13;;;9.00;;
19193;SDS011;9729;52.296;13.260;2023-11-22T02:31:37;17.23;;;9.67;;
19193;SDS011;9729;52.296;13.260;2023-11-22T02:34:04;12.67;;;9.63;;
19193;SDS011;9729;52.296;13.260;2023-11-22T02:36:31;15.60;;;9.97;;
19193;SDS011;9729;52.296;13.260;2023-11-22T02:38:57;15.77;;;9.93;;
19193;SDS011;9729;52.296;13.260;2023-11-22T02:41:26;14.97;;;10.63;;
19193;SDS011;9729;52.296;13.260;2023-11-22T02:43:54;14.23;;;10.20;;
19193;SDS011;9729;52.296;13.260;2023-11-22T02:46:20;21.10;;;10.67;;
19193;SDS011;9729;52.296;13.260;2023-11-22T02:48:48;14.30;;;9.20;;
19193;SDS011;9729;52.296;13.260;2023-11-22T02:51:14;18.33;;;11.20;;
19193;SDS011;9729;52.296;13.260;2023-11-22T02:53:42;15.73;;;10.33;;
19193;SDS011;9729;52.296;13.260;2023-11-22T02:56:10;17.23;;;11.03;;
19193;SDS011;9729;52.296;13.260;2023-11-22T02:58:38;18.53;;;10.13;;
19193;SDS011;9729;52.296;13.260;2023-11-22T03:01:04;17.40;;;9.83;;
19193;SDS011;9729;52.296;13.260;2023-11-22T03:03:32;18.33;;;10.63;;
19193;SDS011;9729;52.296;13.260;2023-11-22T03:05:58;13.83;;;10.13;;
19193;SDS011;9729;52.296;13.260;2023-11-22T03:08:25;16.13;;;10.03;;
19193;SDS011;9729;52.296;13.260;2023-11-22T03:10:52;14.73;;;9.17;;
19193;SDS011;9729;52.296;13.260;2023-11-22T03:13:18;15.03;;;9.27;;
19193;SDS011;9729;52.296;13.260;2023-11-22T03:15:46;16.73;;;10.30;;
19193;SDS011;9729;52.296;13.260;2023-11-22T03:18:12;16.23;;;9.87;;
19193;SDS011;9729;52.296;13.260;2023-11-22T03:20:39;16.63;;;11.00;;
19193;SDS011;9729;52.296;13.260;2023-11-22T03:23:07;16.87;;;9.50;;
19193;SDS011;9729;52.296;13.260;2023-11-22T03:25:35;15.23;;;10.00;;
19193;SDS011;9729;52.296;13.260;2023-11-22T03:28:02;14.30;;;10.60;;
19193;SDS011;9729;52.296;13.260;2023-11-22T03:30:28;17.30;;;10.47;;
19193;SDS011;9729;52.296;13.260;2023-11-22T03:32:56;12.30;;;10.10;;
19193;SDS011;9729;52.296;13.260;2023-11-22T03:35:22;15.00;;;10.27;;
19193;SDS011;9729;52.296;13.260;2023-11-22T03:37:49;15.53;;;9.37;;
19193;SDS011;9729;52.296;13.260;2023-11-22T03:40:15;13.53;;;10.03;;
19193;SDS011;9729;52.296;13.260;2023-11-22T03:42:41;14.33;;;10.27;;
19193;SDS011;9729;52.296;13.260;2023-11-22T03:45:08;13.27;;;10.00;;
19193;SDS011;9729;52.296;13.260;2023-11-22T03:47:35;17.50;;;9.80;;
19193;SDS011;9729;52.296;13.260;2023-11-22T03:50:04;16.63;;;10.37;;
19193;SDS011;9729;52.296;13.260;2023-11-22T03:52:31;17.17;;;9.87;;
19193;SDS011;9729;52.296;13.260;2023-11-22T03:54:57;13.20;;;9.77;;
19193;SDS011;9729;52.296;13.260;2023-11-22T03:57:24;15.47;;;9.73;;
19193;SDS011;9729;52.296;13.260;2023-11-22T03:59:50;16.73;;;9.17;;
19193;SDS011;9729;52.296;13.260;2023-11-22T04:02:17;15.63;;;10.73;;
19193;SDS011;9729;52.296;13.260;2023-11-22T04:04:43;17.20;;;10.53;;
19193;SDS011;9729;52.296;13.260;2023-11-22T04:07:11;17.80;;;10.23;;
19193;SDS011;9729;52.296;13.260;2023-11-22T04:09:38;13.77;;;9.83;;
19193;SDS011;9729;52.296;13.260;2023-11-22T04:12:04;12.87;;;10.10;;
19193;SDS011;9729;52.296;13.260;2023-11-22T04:14:31;13.47;;;9.27;;
19193;SDS011;9729;52.296;13.260;2023-11-22T04:16:57;13.80;;;9.33;;
19193;SDS011;9729;52.296;13.260;2023-11-22T04:19:24;13.73;;;9.57;;
19193;SDS011;9729;52.296;13.260;2023-11-22T04:21:50;10.20;;;8.37;;
19193;SDS011;9729;52.296;13.260;2023-11-22T04:24:17;15.03;;;9.10;;
19193;SDS011;9729;52.296;13.260;2023-11-22T04:26:45;12.73;;;9.00;;
19193;SDS011;9729;52.296;13.260;2023-11-22T04:29:11;11.37;;;8.80;;
19193;SDS011;9729;52.296;13.260;2023-11-22T04:31:37;12.37;;;8.50;;
19193;SDS011;9729;52.296;13.260;2023-11-22T04:34:04;10.37;;;8.37;;
19193;SDS011;9729;52.296;13.260;2023-11-22T04:36:30;13.23;;;9.60;;
19193;SDS011;9729;52.296;13.260;2023-11-22T04:38:57;11.93;;;9.47;;
19193;SDS011;9729;52.296;13.260;2023-11-22T04:41:24;14.30;;;9.73;;
19193;SDS011;9729;52.296;13.260;2023-11-22T04:43:51;13.37;;;9.87;;
19193;SDS011;9729;52.296;13.260;2023-11-22T04:46:18;12.40;;;8.57;;
19193;SDS011;9729;52.296;13.260;2023-11-22T04:48:44;11.70;;;8.70;;
19193;SDS011;9729;52.296;13.260;2023-11-22T04:51:12;12.37;;;8.33;;
19193;SDS011;9729;52.296;13.260;2023-11-22T04:53:38;15.07;;;8.90;;
19193;SDS011;9729;52.296;13.260;2023-11-22T04:56:05;13.53;;;9.00;;
19193;SDS011;9729;52.296;13.260;2023-11-22T04:58:33;13.03;;;9.17;;
19193;SDS011;9729;52.296;13.260;2023-11-22T05:01:00;11.90;;;9.20;;
19193;SDS011;9729;52.296;13.260;2023-11-22T05:03:27;13.03;;;8.43;;
19193;SDS011;9729;52.296;13.260;2023-11-22T05:05:53;13.53;;;8.40;;
19193;SDS011;9729;52.296;13.260;2023-11-22T05:08:20;11.87;;;8.37;;
19193;SDS011;9729;52.296;13.260;2023-11-22T05:10:46;10.60;;;8.13;;
19193;SDS011;9729;52.296;13.260;2023-11-22T05:13:12;11.87;;;8.27;;
19193;SDS011;9729;52.296;13.260;2023-11-22T05:15:40;11.07;;;9.53;;
19193;SDS011;9729;52.296;13.260;2023-11-22T05:18:06;12.57;;;8.80;;
19193;SDS011;9729;52.296;13.260;2023-11-22T05:20:32;13.37;;;8.53;;
19193;SDS011;9729;52.296;13.260;2023-11-22T05:22:59;13.20;;;9.13;;
19193;SDS011;9729;52.296;13.260;2023-11-22T05:25:26;14.50;;;9.07;;
19193;SDS011;9729;52.296;13.260;2023-11-22T05:27:52;12.47;;;9.27;;
19193;SDS011;9729;52.296;13.260;2023-11-22T05:30:18;11.87;;;8.93;;
19193;SDS011;9729;52.296;13.260;2023-11-22T05:32:48;13.33;;;9.13;;
19193;SDS011;9729;52.296;13.260;2023-11-22T05:35:15;14.10;;;8.90;;
19193;SDS011;9729;52.296;13.260;2023-11-22T05:37:42;16.37;;;9.67;;
19193;SDS011;9729;52.296;13.260;2023-11-22T05:40:08;12.60;;;9.63;;
19193;SDS011;9729;52.296;13.260;2023-11-22T05:42:35;13.37;;;9.40;;
19193;SDS011;9729;52.296;13.260;2023-11-22T05:45:02;13.43;;;8.97;;
19193;SDS011;9729;52.296;13.260;2023-11-22T05:47:30;15.40;;;9.50;;
19193;SDS011;9729;52.296;13.260;2023-11-22T05:49:58;15.43;;;10.40;;
19193;SDS011;9729;52.296;13.260;2023-11-22T05:52:25;19.07;;;9.83;;
19193;SDS011;9729;52.296;13.260;2023-11-22T05:54:51;13.90;;;10.27;;
19193;SDS011;9729;52.296;13.260;2023-11-22T05:57:17;13.53;;;9.73;;
19193;SDS011;9729;52.296;13.260;2023-11-22T05:59:44;15.20;;;10.20;;
19193;SDS011;9729;52.296;13.260;2023-11-22T06:02:11;13.60;;;9.27;;
19193;SDS011;9729;52.296;13.260;2023-11-22T06:04:38;15.80;;;9.97;;
19193;SDS011;9729;52.296;13.260;2023-11-22T06:07:06;17.33;;;10.33;;
19193;SDS011;9729;52.296;13.260;2023-11-22T06:09:33;15.03;;;9.77;;
19193;SDS011;9729;52.296;13.260;2023-11-22T06:11:59;14.23;;;9.43;;
19193;SDS011;9729;52.296;13.260;2023-11-22T06:14:25;18.03;;;11.00;;
19193;SDS011;9729;52.296;13.260;2023-11-22T06:16:52;16.20;;;11.00;;
19193;SDS011;9729;52.296;13.260;2023-11-22T06:19:18;22.87;;;10.43;;
19193;SDS011;9729;52.296;13.260;2023-11-22T06:21:44;17.43;;;10.83;;
19193;SDS011;9729;52.296;13.260;2023-11-22T06:24:12;15.73;;;9.73;;
19193;SDS011;9729;52.296;13.260;2023-11-22T06:26:41;15.40;;;11.07;;
19193;SDS011;9729;52.296;13.260;2023-11-22T06:29:07;17.20;;;10.73;;
19193;SDS011;9729;52.296;13.260;2023-11-22T06:31:34;21.97;;;10.90;;
19193;SDS011;9729;52.296;13.260;2023-11-22T06:34:00;13.30;;;10.23;;
19193;SDS011;9729;52.296;13.260;2023-11-22T06:36:27;21.40;;;10.97;;
19193;SDS011;9729;52.296;13.260;2023-11-22T06:38:54;15.77;;;10.90;;
19193;SDS011;9729;52.296;13.260;2023-11-22T06:41:21;22.83;;;11.80;;
19193;SDS011;9729;52.296;13.260;2023-11-22T06:43:47;17.73;;;10.67;;
19193;SDS011;9729;52.296;13.260;2023-11-22T06:46:13;19.43;;;11.17;;
19193;SDS011;9729;52.296;13.260;2023-11-22T06:48:41;18.13;;;11.53;;
19193;SDS011;9729;52.296;13.260;2023-11-22T06:51:08;18.53;;;12.23;;
19193;SDS011;9729;52.296;13.260;2023-11-22T06:53:35;22.30;;;12.20;;
19193;SDS011;9729;52.296;13.260;2023-11-22T06:56:01;17.37;;;12.33;;
19193;SDS011;9729;52.296;13.260;2023-11-22T06:58:29;23.43;;;12.07;;
19193;SDS011;9729;52.296;13.260;2023-11-22T07:00:56;21.80;;;12.53;;
19193;SDS011;9729;52.296;13.260;2023-11-22T07:03:22;18.93;;;11.43;;
19193;SDS011;9729;52.296;13.260;2023-11-22T07:05:48;25.73;;;12.50;;
19193;SDS011;9729;52.296;13.260;2023-11-22T07:08:15;17.10;;;10.87;;
19193;SDS011;9729;52.296;13.260;2023-11-22T07:10:42;28.07;;;11.03;;
19193;SDS011;9729;52.296;13.260;2023-11-22T07:13:09;17.83;;;11.67;;
19193;SDS011;9729;52.296;13.260;2023-11-22T07:15:37;29.23;;;16.00;;
19193;SDS011;9729;52.296;13.260;2023-11-22T07:18:04;17.70;;;12.07;;
19193;SDS011;9729;52.296;13.260;2023-11-22T07:20:31;20.50;;;11.50;;
19193;SDS011;9729;52.296;13.260;2023-11-22T07:22:57;16.27;;;10.93;;
19193;SDS011;9729;52.296;13.260;2023-11-22T07:25:25;17.03;;;11.37;;
19193;SDS011;9729;52.296;13.260;2023-11-22T07:27:51;21.00;;;11.97;;
19193;SDS011;9729;52.296;13.260;2023-11-22T07:30:18;17.67;;;10.97;;
19193;SDS011;9729;52.296;13.260;2023-11-22T07:32:46;15.20;;;9.77;;
19193;SDS011;9729;52.296;13.260;2023-11-22T07:35:13;17.07;;;11.17;;
19193;SDS011;9729;52.296;13.260;2023-11-22T07:37:40;17.57;;;11.30;;
19193;SDS011;9729;52.296;13.260;2023-11-22T07:40:07;16.63;;;11.53;;
19193;SDS011;9729;52.296;13.260;2023-11-22T07:42:34;16.77;;;10.70;;
19193;SDS011;9729;52.296;13.260;2023-11-22T07:45:01;20.00;;;10.93;;
19193;SDS011;9729;52.296;13.260;2023-11-22T07:47:27;16.77;;;10.57;;
19193;SDS011;9729;52.296;13.260;2023-11-22T07:49:55;17.00;;;11.70;;
19193;SDS011;9729;52.296;13.260;2023-11-22T07:52:21;18.97;;;11.73;;
19193;SDS011;9729;52.296;13.260;2023-11-22T07:54:47;15.87;;;12.17;;
19193;SDS011;9729;52.296;13.260;2023-11-22T07:57:14;21.43;;;11.73;;
19193;SDS011;9729;52.296;13.260;2023-11-22T07:59:40;19.93;;;12.30;;
19193;SDS011;9729;52.296;13.260;2023-11-22T08:02:07;15.63;;;11.33;;
19193;SDS011;9729;52.296;13.260;2023-11-22T08:04:36;19.37;;;11.33;;
19193;SDS011;9729;52.296;13.260;2023-11-22T08:07:04;19.80;;;11.70;;
19193;SDS011;9729;52.296;13.260;2023-11-22T08:09:30;18.00;;;12.33;;
19193;SDS011;9729;52.296;13.260;2023-11-22T08:11:57;21.73;;;12.60;;
19193;SDS011;9729;52.296;13.260;2023-11-22T08:14:24;15.80;;;11.00;;
19193;SDS011;9729;52.296;13.260;2023-11-22T08:16:52;25.77;;;12.20;;
19193;SDS011;9729;52.296;13.260;2023-11-22T08:19:19;20.27;;;11.53;;
19193;SDS011;9729;52.296;13.260;2023-11-22T08:21:45;16.30;;;9.87;;
19193;SDS011;9729;52.296;13.260;2023-11-22T08:24:13;25.67;;;11.57;;
19193;SDS011;9729;52.296;13.260;2023-11-22T08:26:39;17.83;;;11.17;;
19193;SDS011;9729;52.296;13.260;2023-11-22T08:29:05;18.63;;;11.33;;
19193;SDS011;9729;52.296;13.260;2023-11-22T08:31:32;19.87;;;11.13;;
19193;SDS011;9729;52.296;13.260;2023-11-22T08:33:59;15.80;;;10.63;;
19193;SDS011;9729;52.296;13.260;2023-11-22T08:36:25;20.83;;;9.90;;
19193;SDS011;9729;52.296;13.260;2023-11-22T08:38:53;15.83;;;9.80;;
19193;SDS011;9729;52.296;13.260;2023-11-22T08:41:21;14.90;;;9.37;;
19193;SDS011;9729;52.296;13.260;2023-11-22T08:43:48;20.73;;;11.10;;
19193;SDS011;9729;52.296;13.260;2023-11-22T08:46:15;8.77;;;7.20;;
19193;SDS011;9729;52.296;13.260;2023-11-22T08:48:41;13.87;;;9.07;;
19193;SDS011;9729;52.296;13.260;2023-11-22T08:51:07;14.17;;;9.53;;
19193;SDS011;9729;52.296;13.260;2023-11-22T08:53:35;13.10;;;10.23;;
19193;SDS011;9729;52.296;13.260;2023-11-22T08:56:01;24.70;;;10.70;;
19193;SDS011;9729;52.296;13.260;2023-11-22T08:58:32;16.20;;;10.00;;
19193;SDS011;9729;52.296;13.260;2023-11-22T09:00:58;17.47;;;10.63;;
19193;SDS011;9729;52.296;13.260;2023-11-22T09:03:25;16.40;;;10.53;;
19193;SDS011;9729;52.296;13.260;2023-11-22T09:05:51;16.20;;;10.40;;
19193;SDS011;9729;52.296;13.260;2023-11-22T09:08:18;15.43;;;10.23;;
19193;SDS011;9729;52.296;13.260;2023-11-22T09:10:46;14.77;;;9.37;;
19193;SDS011;9729;52.296;13.260;2023-11-22T09:13:12;17.07;;;10.13;;
19193;SDS011;9729;52.296;13.260;2023-11-22T09:15:42;17.27;;;9.93;;
19193;SDS011;9729;52.296;13.260;2023-11-22T09:18:09;19.07;;;9.90;;
19193;SDS011;9729;52.296;13.260;2023-11-22T09:20:37;16.60;;;10.37;;
19193;SDS011;9729;52.296;13.260;2023-11-22T09:23:03;14.70;;;9.93;;
19193;SDS011;9729;52.296;13.260;2023-11-22T09:25:30;15.20;;;10.10;;
19193;SDS011;9729;52.296;13.260;2023-11-22T09:27:58;15.53;;;9.50;;
19193;SDS011;9729;52.296;13.260;2023-11-22T09:30:25;13.07;;;9.07;;
19193;SDS011;9729;52.296;13.260;2023-11-22T09:33:05;12.20;;;9.03;;
19193;SDS011;9729;52.296;13.260;2023-11-22T09:35:33;15.07;;;11.23;;
19193;SDS011;9729;52.296;13.260;2023-11-22T09:38:01;13.70;;;9.97;;
19193;SDS011;9729;52.296;13.260;2023-11-22T09:40:28;13.43;;;8.97;;
19193;SDS011;9729;52.296;13.260;2023-11-22T09:42:57;15.00;;;10.07;;
19193;SDS011;9729;52.296;13.260;2023-11-22T09:45:23;14.17;;;9.37;;
19193;SDS011;9729;52.296;13.260;2023-11-22T09:47:50;16.37;;;10.33;;
19193;SDS011;9729;52.296;13.260;2023-11-22T09:50:19;14.33;;;9.90;;
19193;SDS011;9729;52.296;13.260;2023-11-22T09:52:48;15.67;;;9.90;;
19193;SDS011;9729;52.296;13.260;2023-11-22T09:55:16;19.70;;;10.97;;
19193;SDS011;9729;52.296;13.260;2023-11-22T09:57:43;15.43;;;10.30;;
19193;SDS011;9729;52.296;13.260;2023-11-22T10:00:10;18.43;;;11.67;;
19193;SDS011;9729;52.296;13.260;2023-11-22T10:02:39;15.97;;;10.40;;
19193;SDS011;9729;52.296;13.260;2023-11-22T10:05:06;22.53;;;11.00;;
19193;SDS011;9729;52.296;13.260;2023-11-22T10:07:35;22.27;;;12.77;;
19193;SDS011;9729;52.296;13.260;2023-11-22T10:10:02;25.90;;;13.23;;
19193;SDS011;9729;52.296;13.260;2023-11-22T10:12:31;14.07;;;8.77;;
19193;SDS011;9729;52.296;13.260;2023-11-22T10:15:10;16.80;;;10.00;;
19193;SDS011;9729;52.296;13.260;2023-11-22T10:17:37;21.60;;;11.10;;
19193;SDS011;9729;52.296;13.260;2023-11-22T10:20:04;15.60;;;10.33;;
19193;SDS011;9729;52.296;13.260;2023-11-22T10:22:42;16.53;;;11.00;;
19193;SDS011;9729;52.296;13.260;2023-11-22T10:25:10;14.70;;;9.33;;
19193;SDS011;9729;52.296;13.260;2023-11-22T10:27:38;17.10;;;11.10;;
19193;SDS011;9729;52.296;13.260;2023-11-22T10:30:04;18.03;;;10.57;;
19193;SDS011;9729;52.296;13.260;2023-11-22T10:32:32;14.27;;;10.80;;
19193;SDS011;9729;52.296;13.260;2023-11-22T10:34:58;16.60;;;9.73;;
19193;SDS011;9729;52.296;13.260;2023-11-22T10:37:25;14.43;;;10.37;;
19193;SDS011;9729;52.296;13.260;2023-11-22T10:39:53;12.80;;;9.43;;
19193;SDS011;9729;52.296;13.260;2023-11-22T10:42:19;15.13;;;10.10;;
19193;SDS011;9729;52.296;13.260;2023-11-22T10:44:48;14.27;;;10.33;;
19193;SDS011;9729;52.296;13.260;2023-11-22T10:47:14;14.90;;;9.87;;
19193;SDS011;9729;52.296;13.260;2023-11-22T10:49:42;15.73;;;10.10;;
19193;SDS011;9729;52.296;13.260;2023-11-22T10:52:08;15.23;;;10.80;;
19193;SDS011;9729;52.296;13.260;2023-11-22T10:54:37;19.47;;;11.20;;
19193;SDS011;9729;52.296;13.260;2023-11-22T10:57:10;17.90;;;9.93;;
19193;SDS011;9729;52.296;13.260;2023-11-22T10:59:38;19.33;;;9.90;;
19193;SDS011;9729;52.296;13.260;2023-11-22T11:02:07;14.57;;;9.83;;
19193;SDS011;9729;52.296;13.260;2023-11-22T11:04:39;11.07;;;8.53;;
19193;SDS011;9729;52.296;13.260;2023-11-22T11:07:09;13.70;;;8.97;;
19193;SDS011;9729;52.296;13.260;2023-11-22T11:09:39;14.27;;;9.80;;
19193;SDS011;9729;52.296;13.260;2023-11-22T11:12:06;17.90;;;10.27;;
19193;SDS011;9729;52.296;13.260;2023-11-22T11:14:34;14.00;;;9.50;;
19193;SDS011;9729;52.296;13.260;2023-11-22T11:17:01;15.23;;;9.03;;
19193;SDS011;9729;52.296;13.260;2023-11-22T11:19:27;13.43;;;10.27;;
19193;SDS011;9729;52.296;13.260;2023-11-22T11:21:55;13.90;;;10.30;;
19193;SDS011;9729;52.296;13.260;2023-11-22T11:24:23;13.27;;;9.57;;
19193;SDS011;9729;52.296;13.260;2023-11-22T11:26:49;13.30;;;9.33;;
19193;SDS011;9729;52.296;13.260;2023-11-22T11:32:09;13.97;;;9.87;;
19193;SDS011;9729;52.296;13.260;2023-11-22T11:34:37;13.67;;;9.07;;
19193;SDS011;9729;52.296;13.260;2023-11-22T11:37:13;11.37;;;8.60;;
19193;SDS011;9729;52.296;13.260;2023-11-22T11:39:40;14.77;;;9.80;;
19193;SDS011;9729;52.296;13.260;2023-11-22T11:42:07;16.03;;;10.20;;
19193;SDS011;9729;52.296;13.260;2023-11-22T11:44:34;15.20;;;9.67;;
19193;SDS011;9729;52.296;13.260;2023-11-22T11:47:09;17.07;;;9.07;;
19193;SDS011;9729;52.296;13.260;2023-11-22T11:49:36;14.33;;;10.00;;
19193;SDS011;9729;52.296;13.260;2023-11-22T11:52:03;14.47;;;9.70;;
19193;SDS011;9729;52.296;13.260;2023-11-22T11:54:30;15.30;;;10.47;;
19193;SDS011;9729;52.296;13.260;2023-11-22T11:56:58;14.30;;;10.00;;
19193;SDS011;9729;52.296;13.260;2023-11-22T11:59:25;12.20;;;9.17;;
19193;SDS011;9729;52.296;13.260;2023-11-22T12:01:52;15.40;;;9.33;;
19193;SDS011;9729;52.296;13.260;2023-11-22T12:04:21;11.63;;;9.13;;
19193;SDS011;9729;52.296;13.260;2023-11-22T12:06:49;17.70;;;9.37;;
19193;SDS011;9729;52.296;13.260;2023-11-22T12:09:21;15.73;;;9.93;;
19193;SDS011;9729;52.296;13.260;2023-11-22T12:11:49;11.07;;;8.80;;
19193;SDS011;9729;52.296;13.260;2023-11-22T12:14:15;13.40;;;9.40;;
19193;SDS011;9729;52.296;13.260;2023-11-22T12:16:42;13.60;;;9.77;;
19193;SDS011;9729;52.296;13.260;2023-11-22T12:19:13;14.30;;;9.50;;
19193;SDS011;9729;52.296;13.260;2023-11-22T12:21:48;9.77;;;8.53;;
19193;SDS011;9729;52.296;13.260;2023-11-22T12:24:15;11.00;;;7.80;;
19193;SDS011;9729;52.296;13.260;2023-11-22T12:26:44;12.33;;;9.50;;
19193;SDS011;9729;52.296;13.260;2023-11-22T12:29:11;10.40;;;8.17;;
19193;SDS011;9729;52.296;13.260;2023-11-22T12:31:43;15.93;;;11.10;;
19193;SDS011;9729;52.296;13.260;2023-11-22T12:34:11;11.30;;;9.10;;
19193;SDS011;9729;52.296;13.260;2023-11-22T12:36:39;15.33;;;9.77;;
19193;SDS011;9729;52.296;13.260;2023-11-22T12:39:06;11.10;;;8.63;;
19193;SDS011;9729;52.296;13.260;2023-11-22T12:41:36;10.07;;;8.87;;
19193;SDS011;9729;52.296;13.260;2023-11-22T12:44:08;13.93;;;8.70;;
19193;SDS011;9729;52.296;13.260;2023-11-22T12:46:47;12.20;;;9.17;;
19193;SDS011;9729;52.296;13.260;2023-11-22T12:49:17;12.33;;;9.43;;
19193;SDS011;9729;52.296;13.260;2023-11-22T12:51:48;13.33;;;9.20;;
19193;SDS011;9729;52.296;13.260;2023-11-22T12:54:15;14.27;;;9.80;;
19193;SDS011;9729;52.296;13.260;2023-11-22T12:56:41;12.37;;;8.53;;
19193;SDS011;9729;52.296;13.260;2023-11-22T12:59:08;12.50;;;9.13;;
19193;SDS011;9729;52.296;13.260;2023-11-22T13:01:37;13.20;;;9.70;;
19193;SDS011;9729;52.296;13.260;2023-11-22T13:04:03;11.90;;;8.77;;
19193;SDS011;9729;52.296;13.260;2023-11-22T13:06:30;12.33;;;8.73;;
19193;SDS011;9729;52.296;13.260;2023-11-22T13:08:58;16.97;;;10.33;;
19193;SDS011;9729;52.296;13.260;2023-11-22T13:11:24;11.77;;;9.60;;
19193;SDS011;9729;52.296;13.260;2023-11-22T13:13:51;14.87;;;9.40;;
19193;SDS011;9729;52.296;13.260;2023-11-22T13:16:17;12.47;;;9.13;;
19193;SDS011;9729;52.296;13.260;2023-11-22T13:18:44;13.87;;;9.67;;
19193;SDS011;9729;52.296;13.260;2023-11-22T13:21:10;15.83;;;9.70;;
19193;SDS011;9729;52.296;13.260;2023-11-22T13:23:37;15.30;;;10.30;;
19193;SDS011;9729;52.296;13.260;2023-11-22T13:26:04;13.53;;;9.47;;
19193;SDS011;9729;52.296;13.260;2023-11-22T13:28:34;14.17;;;9.07;;
19193;SDS011;9729;52.296;13.260;2023-11-22T13:31:00;13.67;;;9.03;;
19193;SDS011;9729;52.296;13.260;2023-11-22T13:33:27;10.20;;;8.47;;
19193;SDS011;9729;52.296;13.260;2023-11-22T13:35:54;12.47;;;9.07;;
19193;SDS011;9729;52.296;13.260;2023-11-22T13:38:20;13.00;;;8.37;;
19193;SDS011;9729;52.296;13.260;2023-11-22T13:40:46;13.30;;;8.67;;
19193;SDS011;9729;52.296;13.260;2023-11-22T13:43:14;11.50;;;8.27;;
19193;SDS011;9729;52.296;13.260;2023-11-22T13:45:42;12.73;;;8.13;;
19193;SDS011;9729;52.296;13.260;2023-11-22T13:48:10;10.63;;;8.77;;
19193;SDS011;9729;52.296;13.260;2023-11-22T13:50:36;9.47;;;8.40;;
19193;SDS011;9729;52.296;13.260;2023-11-22T13:53:03;9.37;;;8.03;;
19193;SDS011;9729;52.296;13.260;2023-11-22T13:55:29;14.40;;;9.33;;
19193;SDS011;9729;52.296;13.260;2023-11-22T13:57:57;14.07;;;8.93;;
19193;SDS011;9729;52.296;13.260;2023-11-22T14:00:26;12.37;;;8.93;;
19193;SDS011;9729;52.296;13.260;2023-11-22T14:02:57;14.13;;;8.70;;
19193;SDS011;9729;52.296;13.260;2023-11-22T14:05:30;13.27;;;9.87;;
19193;SDS011;9729;52.296;13.260;2023-11-22T14:07:58;14.20;;;9.13;;
19193;SDS011;9729;52.296;13.260;2023-11-22T14:10:24;9.43;;;8.17;;
19193;SDS011;9729;52.296;13.260;2023-11-22T14:12:50;11.83;;;9.07;;
19193;SDS011;9729;52.296;13.260;2023-11-22T14:15:17;15.50;;;9.43;;
19193;SDS011;9729;52.296;13.260;2023-11-22T14:17:45;16.63;;;9.53;;
19193;SDS011;9729;52.296;13.260;2023-11-22T14:20:15;12.03;;;8.53;;
19193;SDS011;9729;52.296;13.260;2023-11-22T14:22:41;14.83;;;8.30;;
19193;SDS011;9729;52.296;13.260;2023-11-22T14:25:08;13.07;;;9.33;;
19193;SDS011;9729;52.296;13.260;2023-11-22T14:27:36;11.40;;;8.27;;
19193;SDS011;9729;52.296;13.260;2023-11-22T14:30:03;12.43;;;8.63;;
19193;SDS011;9729;52.296;13.260;2023-11-22T14:32:32;13.80;;;9.77;;